Airport View

Enter AWOS ICAO identifier for current METAR.

ex. KFNL

KDCM 100430Z AUTO 00000KT 10SM SCT040 SCT070 23/23 A2995 RMK AO2 LTG DSNT SE

10 Jul 2020 04:24

Frequency: 120.975

Phone: 803-385-2011

Other Area AWOS: KUZA - KLKR - KAKH - KCLT

TAF KCLT 092336Z 1000/1106 03006KT P6SM VCSH SCT040 FM100200 VRB02KT P6SM FEW025 FEW050 BKN250 FM101700 25006KT P6SM VCSH SCT050 PROB30 1020/1102 4SM TSRA BR BKN040CB FM110400 23003KT P6SM SCT030